sensor_id;sensor_type;location;lat;lon;timestamp;pressure;altitude;pressure_sealevel;temperature;humidity
75895;BME280;64573;50.328;15.014;2022-12-18T00:01:28;100375.28;;;-9.59;92.89
75895;BME280;64573;50.328;15.014;2022-12-18T00:03:55;100375.16;;;-9.50;92.85
75895;BME280;64573;50.328;15.014;2022-12-18T00:06:22;100365.16;;;-9.79;92.45
75895;BME280;64573;50.328;15.014;2022-12-18T00:08:48;100381.00;;;-9.98;91.90
75895;BME280;64573;50.328;15.014;2022-12-18T00:11:16;100384.56;;;-10.06;91.24
75895;BME280;64573;50.328;15.014;2022-12-18T00:13:42;100385.34;;;-9.99;91.64
75895;BME280;64573;50.328;15.014;2022-12-18T00:16:10;100382.28;;;-10.32;91.71
75895;BME280;64573;50.328;15.014;2022-12-18T00:18:36;100383.19;;;-10.37;92.17
75895;BME280;64573;50.328;15.014;2022-12-18T00:21:04;100382.31;;;-10.33;92.49
75895;BME280;64573;50.328;15.014;2022-12-18T00:23:30;100381.44;;;-10.34;92.09
75895;BME280;64573;50.328;15.014;2022-12-18T00:25:59;100376.06;;;-10.21;91.97
75895;BME280;64573;50.328;15.014;2022-12-18T00:28:24;100378.59;;;-10.12;92.24
75895;BME280;64573;50.328;15.014;2022-12-18T00:30:50;100375.91;;;-10.05;92.88
75895;BME280;64573;50.328;15.014;2022-12-18T00:33:17;100379.19;;;-9.90;93.18
75895;BME280;64573;50.328;15.014;2022-12-18T00:35:42;100383.22;;;-9.69;93.33
75895;BME280;64573;50.328;15.014;2022-12-18T00:38:08;100391.31;;;-9.29;94.19
75895;BME280;64573;50.328;15.014;2022-12-18T00:40:33;100398.78;;;-9.08;93.81
75895;BME280;64573;50.328;15.014;2022-12-18T00:42:58;100394.97;;;-8.87;94.04
75895;BME280;64573;50.328;15.014;2022-12-18T00:45:29;100385.16;;;-8.71;93.87
75895;BME280;64573;50.328;15.014;2022-12-18T00:47:55;100386.94;;;-8.73;93.57
75895;BME280;64573;50.328;15.014;2022-12-18T00:50:22;100390.59;;;-8.83;92.86
75895;BME280;64573;50.328;15.014;2022-12-18T00:52:48;100390.47;;;-8.76;92.43
75895;BME280;64573;50.328;15.014;2022-12-18T00:55:14;100395.41;;;-8.62;93.57
75895;BME280;64573;50.328;15.014;2022-12-18T00:57:40;100402.97;;;-8.47;93.91
75895;BME280;64573;50.328;15.014;2022-12-18T01:00:08;100416.66;;;-8.37;93.81
75895;BME280;64573;50.328;15.014;2022-12-18T01:02:34;100422.69;;;-8.35;93.79
75895;BME280;64573;50.328;15.014;2022-12-18T01:04:59;100429.75;;;-8.42;92.97
75895;BME280;64573;50.328;15.014;2022-12-18T01:07:25;100424.50;;;-8.40;93.23
75895;BME280;64573;50.328;15.014;2022-12-18T01:09:50;100423.03;;;-8.53;93.48
75895;BME280;64573;50.328;15.014;2022-12-18T01:12:15;100437.53;;;-8.42;93.10
75895;BME280;64573;50.328;15.014;2022-12-18T01:14:41;100437.38;;;-8.34;93.20
75895;BME280;64573;50.328;15.014;2022-12-18T01:17:06;100441.63;;;-8.28;93.43
75895;BME280;64573;50.328;15.014;2022-12-18T01:19:31;100429.28;;;-8.19;93.28
75895;BME280;64573;50.328;15.014;2022-12-18T01:21:57;100430.06;;;-8.14;93.20
75895;BME280;64573;50.328;15.014;2022-12-18T01:24:22;100432.47;;;-8.05;93.24
75895;BME280;64573;50.328;15.014;2022-12-18T01:26:48;100429.81;;;-8.00;93.89
75895;BME280;64573;50.328;15.014;2022-12-18T01:29:13;100433.13;;;-7.92;93.63
75895;BME280;64573;50.328;15.014;2022-12-18T01:31:38;100431.16;;;-7.81;93.65
75895;BME280;64573;50.328;15.014;2022-12-18T01:34:05;100434.66;;;-7.82;94.27
75895;BME280;64573;50.328;15.014;2022-12-18T01:36:33;100438.13;;;-7.83;93.75
75895;BME280;64573;50.328;15.014;2022-12-18T01:39:00;100441.69;;;-7.87;93.82
75895;BME280;64573;50.328;15.014;2022-12-18T01:41:30;100445.28;;;-7.92;93.91
75895;BME280;64573;50.328;15.014;2022-12-18T01:47:26;100442.75;;;-7.97;93.55
75895;BME280;64573;50.328;15.014;2022-12-18T01:49:53;100441.19;;;-8.06;93.07
75895;BME280;64573;50.328;15.014;2022-12-18T01:52:20;100451.72;;;-8.10;93.23
75895;BME280;64573;50.328;15.014;2022-12-18T01:54:47;100441.44;;;-8.19;92.89
75895;BME280;64573;50.328;15.014;2022-12-18T01:57:14;100445.00;;;-8.23;93.55
75895;BME280;64573;50.328;15.014;2022-12-18T01:59:42;100454.44;;;-8.18;93.59
75895;BME280;64573;50.328;15.014;2022-12-18T02:02:08;100464.72;;;-8.12;94.12
75895;BME280;64573;50.328;15.014;2022-12-18T02:04:33;100466.44;;;-8.09;93.51
75895;BME280;64573;50.328;15.014;2022-12-18T02:07:17;100471.59;;;-8.08;93.27
75895;BME280;64573;50.328;15.014;2022-12-18T02:18:20;100476.25;;;-7.79;93.38
75895;BME280;64573;50.328;15.014;2022-12-18T02:20:57;100483.97;;;-7.72;93.84
75895;BME280;64573;50.328;15.014;2022-12-18T02:28:42;100481.41;;;-7.75;93.82
75895;BME280;64573;50.328;15.014;2022-12-18T02:31:13;100475.31;;;-7.74;94.32
75895;BME280;64573;50.328;15.014;2022-12-18T02:33:40;100483.81;;;-7.65;93.40
75895;BME280;64573;50.328;15.014;2022-12-18T02:36:07;100480.38;;;-7.67;93.02
75895;BME280;64573;50.328;15.014;2022-12-18T02:38:34;100478.59;;;-7.65;93.53
75895;BME280;64573;50.328;15.014;2022-12-18T02:41:00;100477.66;;;-7.62;93.00
75895;BME280;64573;50.328;15.014;2022-12-18T02:43:25;100476.78;;;-7.61;94.06
75895;BME280;64573;50.328;15.014;2022-12-18T02:45:56;100471.47;;;-7.57;93.10
75895;BME280;64573;50.328;15.014;2022-12-18T02:48:33;100481.97;;;-7.61;93.18
75895;BME280;64573;50.328;15.014;2022-12-18T02:51:14;100481.13;;;-7.60;93.75
75895;BME280;64573;50.328;15.014;2022-12-18T02:53:51;100477.59;;;-7.58;93.85
75895;BME280;64573;50.328;15.014;2022-12-18T02:56:26;100487.16;;;-7.58;93.61
75895;BME280;64573;50.328;15.014;2022-12-18T02:59:02;100488.75;;;-7.51;94.11
75895;BME280;64573;50.328;15.014;2022-12-18T03:04:20;100491.06;;;-7.37;94.53
75895;BME280;64573;50.328;15.014;2022-12-18T03:06:51;100491.84;;;-7.34;94.59
75895;BME280;64573;50.328;15.014;2022-12-18T03:09:24;100491.06;;;-7.37;93.87
75895;BME280;64573;50.328;15.014;2022-12-18T03:12:00;100491.19;;;-7.43;94.20
75895;BME280;64573;50.328;15.014;2022-12-18T03:15:10;100492.03;;;-7.43;93.76
75895;BME280;64573;50.328;15.014;2022-12-18T03:17:35;100485.97;;;-7.43;94.49
75895;BME280;64573;50.328;15.014;2022-12-18T03:20:12;100489.38;;;-7.40;94.34
75895;BME280;64573;50.328;15.014;2022-12-18T03:22:41;100484.84;;;-7.32;94.10
75895;BME280;64573;50.328;15.014;2022-12-18T03:25:09;100476.28;;;-7.37;93.66
75895;BME280;64573;50.328;15.014;2022-12-18T03:27:38;100481.38;;;-7.32;93.52
75895;BME280;64573;50.328;15.014;2022-12-18T03:30:08;100495.22;;;-7.29;93.36
75895;BME280;64573;50.328;15.014;2022-12-18T03:32:56;100498.59;;;-7.25;93.91
75895;BME280;64573;50.328;15.014;2022-12-18T03:35:33;100498.56;;;-7.22;93.92
75895;BME280;64573;50.328;15.014;2022-12-18T03:38:00;100515.06;;;-7.22;94.05
75895;BME280;64573;50.328;15.014;2022-12-18T03:40:34;100506.41;;;-7.24;94.25
75895;BME280;64573;50.328;15.014;2022-12-18T03:43:13;100513.22;;;-7.18;94.43
75895;BME280;64573;50.328;15.014;2022-12-18T03:45:50;100515.16;;;-7.26;94.32
75895;BME280;64573;50.328;15.014;2022-12-18T03:48:19;100511.72;;;-7.28;94.61
75895;BME280;64573;50.328;15.014;2022-12-18T03:50:53;100523.94;;;-7.30;94.05
75895;BME280;64573;50.328;15.014;2022-12-18T03:53:41;100526.50;;;-7.29;93.72
75895;BME280;64573;50.328;15.014;2022-12-18T03:56:10;100529.13;;;-7.29;93.42
75895;BME280;64573;50.328;15.014;2022-12-18T03:58:40;100522.84;;;-7.20;94.56
75895;BME280;64573;50.328;15.014;2022-12-18T04:01:07;100530.56;;;-7.15;94.73
75895;BME280;64573;50.328;15.014;2022-12-18T04:03:35;100520.97;;;-7.13;93.77
75895;BME280;64573;50.328;15.014;2022-12-18T04:06:02;100532.22;;;-7.11;94.30
75895;BME280;64573;50.328;15.014;2022-12-18T04:08:28;100523.41;;;-7.06;93.96
75895;BME280;64573;50.328;15.014;2022-12-18T04:10:54;100538.13;;;-7.03;94.88
75895;BME280;64573;50.328;15.014;2022-12-18T04:13:23;100539.53;;;-6.87;94.92
75895;BME280;64573;50.328;15.014;2022-12-18T04:15:49;100539.91;;;-6.67;93.56
75895;BME280;64573;50.328;15.014;2022-12-18T04:18:15;100540.50;;;-6.54;94.25
75895;BME280;64573;50.328;15.014;2022-12-18T04:20:40;100535.03;;;-6.45;93.88
75895;BME280;64573;50.328;15.014;2022-12-18T04:23:05;100533.19;;;-6.40;93.88
75895;BME280;64573;50.328;15.014;2022-12-18T04:25:30;100541.28;;;-6.50;94.37
75895;BME280;64573;50.328;15.014;2022-12-18T04:27:56;100547.59;;;-6.60;94.49
75895;BME280;64573;50.328;15.014;2022-12-18T04:30:21;100547.72;;;-6.65;93.02
75895;BME280;64573;50.328;15.014;2022-12-18T04:32:46;100548.06;;;-6.80;93.82
75895;BME280;64573;50.328;15.014;2022-12-18T04:35:12;100549.53;;;-6.69;94.52
75895;BME280;64573;50.328;15.014;2022-12-18T04:37:37;100557.16;;;-6.59;94.31
75895;BME280;64573;50.328;15.014;2022-12-18T04:40:03;100560.59;;;-6.57;94.82
75895;BME280;64573;50.328;15.014;2022-12-18T04:42:28;100559.75;;;-6.59;94.83
75895;BME280;64573;50.328;15.014;2022-12-18T04:44:54;100559.78;;;-6.61;94.26
75895;BME280;64573;50.328;15.014;2022-12-18T04:47:19;100557.19;;;-6.61;94.48
75895;BME280;64573;50.328;15.014;2022-12-18T04:49:44;100561.53;;;-6.61;94.55
75895;BME280;64573;50.328;15.014;2022-12-18T04:52:09;100569.38;;;-6.61;93.43
75895;BME280;64573;50.328;15.014;2022-12-18T04:54:35;100571.94;;;-6.60;93.53
75895;BME280;64573;50.328;15.014;2022-12-18T04:57:00;100569.41;;;-6.63;93.63
75895;BME280;64573;50.328;15.014;2022-12-18T04:59:26;100574.72;;;-6.66;94.52
75895;BME280;64573;50.328;15.014;2022-12-18T05:01:51;100564.28;;;-6.66;94.43
75895;BME280;64573;50.328;15.014;2022-12-18T05:04:16;100579.84;;;-6.63;93.59
75895;BME280;64573;50.328;15.014;2022-12-18T05:06:42;100571.94;;;-6.58;94.41
75895;BME280;64573;50.328;15.014;2022-12-18T05:09:07;100577.09;;;-6.57;93.85
75895;BME280;64573;50.328;15.014;2022-12-18T05:11:32;100576.97;;;-6.52;94.69
75895;BME280;64573;50.328;15.014;2022-12-18T05:14:01;100576.28;;;-6.59;93.75
75895;BME280;64573;50.328;15.014;2022-12-18T05:16:27;100590.34;;;-6.64;95.06
75895;BME280;64573;50.328;15.014;2022-12-18T05:18:52;100593.72;;;-6.61;94.64
75895;BME280;64573;50.328;15.014;2022-12-18T05:21:18;100597.09;;;-6.56;95.14
75895;BME280;64573;50.328;15.014;2022-12-18T05:23:43;100590.94;;;-6.53;94.72
75895;BME280;64573;50.328;15.014;2022-12-18T05:26:08;100597.91;;;-6.54;94.24
75895;BME280;64573;50.328;15.014;2022-12-18T05:28:39;100593.59;;;-6.55;93.43
75895;BME280;64573;50.328;15.014;2022-12-18T05:31:04;100596.19;;;-6.55;93.73
75895;BME280;64573;50.328;15.014;2022-12-18T05:33:32;100598.84;;;-6.56;93.68
75895;BME280;64573;50.328;15.014;2022-12-18T05:35:59;100607.66;;;-6.62;93.71
75895;BME280;64573;50.328;15.014;2022-12-18T05:38:28;100603.34;;;-6.63;93.94
75895;BME280;64573;50.328;15.014;2022-12-18T05:40:54;100614.59;;;-6.61;93.83
75895;BME280;64573;50.328;15.014;2022-12-18T05:43:21;100617.28;;;-6.64;93.36
75895;BME280;64573;50.328;15.014;2022-12-18T05:45:47;100620.84;;;-6.68;94.14
75895;BME280;64573;50.328;15.014;2022-12-18T05:48:13;100619.94;;;-6.67;93.90
75895;BME280;64573;50.328;15.014;2022-12-18T05:50:40;100626.91;;;-6.68;94.12
75895;BME280;64573;50.328;15.014;2022-12-18T05:53:07;100621.69;;;-6.68;93.97
75895;BME280;64573;50.328;15.014;2022-12-18T05:55:37;100633.09;;;-6.72;92.72
75895;BME280;64573;50.328;15.014;2022-12-18T05:58:04;100626.16;;;-6.73;92.86
75895;BME280;64573;50.328;15.014;2022-12-18T06:00:31;100628.88;;;-6.77;93.43
75895;BME280;64573;50.328;15.014;2022-12-18T06:02:57;100621.97;;;-6.80;94.22
75895;BME280;64573;50.328;15.014;2022-12-18T06:05:23;100634.16;;;-6.80;93.35
75895;BME280;64573;50.328;15.014;2022-12-18T06:07:48;100634.19;;;-6.83;92.95
75895;BME280;64573;50.328;15.014;2022-12-18T06:10:13;100636.72;;;-6.79;93.40
75895;BME280;64573;50.328;15.014;2022-12-18T06:12:39;100640.19;;;-6.78;93.36
75895;BME280;64573;50.328;15.014;2022-12-18T06:15:05;100646.31;;;-6.81;93.50
75895;BME280;64573;50.328;15.014;2022-12-18T06:17:31;100639.34;;;-6.79;94.25
75895;BME280;64573;50.328;15.014;2022-12-18T06:19:57;100641.88;;;-6.76;94.07
75895;BME280;64573;50.328;15.014;2022-12-18T06:22:22;100643.66;;;-6.78;93.21
75895;BME280;64573;50.328;15.014;2022-12-18T06:24:47;100644.44;;;-6.73;93.86
75895;BME280;64573;50.328;15.014;2022-12-18T06:27:13;100649.66;;;-6.73;93.82
75895;BME280;64573;50.328;15.014;2022-12-18T06:29:38;100658.47;;;-6.78;93.93
75895;BME280;64573;50.328;15.014;2022-12-18T06:32:04;100661.97;;;-6.79;94.26
75895;BME280;64573;50.328;15.014;2022-12-18T06:34:29;100667.13;;;-6.78;94.23
75895;BME280;64573;50.328;15.014;2022-12-18T06:36:55;100669.75;;;-6.78;93.85
75895;BME280;64573;50.328;15.014;2022-12-18T06:39:20;100676.72;;;-6.78;93.26
75895;BME280;64573;50.328;15.014;2022-12-18T06:41:45;100668.78;;;-6.72;94.33
75895;BME280;64573;50.328;15.014;2022-12-18T06:44:11;100660.00;;;-6.70;94.04
75895;BME280;64573;50.328;15.014;2022-12-18T06:46:36;100671.38;;;-6.72;93.71
75895;BME280;64573;50.328;15.014;2022-12-18T06:49:03;100679.13;;;-6.69;93.95
75895;BME280;64573;50.328;15.014;2022-12-18T06:51:28;100688.63;;;-6.67;93.97
75895;BME280;64573;50.328;15.014;2022-12-18T06:53:54;100682.56;;;-6.65;93.79
75895;BME280;64573;50.328;15.014;2022-12-18T06:56:19;100687.72;;;-6.64;93.57
75895;BME280;64573;50.328;15.014;2022-12-18T06:58:45;100689.44;;;-6.63;93.53
75895;BME280;64573;50.328;15.014;2022-12-18T07:01:12;100704.22;;;-6.62;93.29
75895;BME280;64573;50.328;15.014;2022-12-18T07:03:39;100700.66;;;-6.59;93.74
75895;BME280;64573;50.328;15.014;2022-12-18T07:06:05;100702.38;;;-6.57;93.07
75895;BME280;64573;50.328;15.014;2022-12-18T07:08:31;100710.16;;;-6.55;94.03
75895;BME280;64573;50.328;15.014;2022-12-18T07:10:57;100704.00;;;-6.51;92.91
75895;BME280;64573;50.328;15.014;2022-12-18T07:13:23;100703.97;;;-6.50;93.97
75895;BME280;64573;50.328;15.014;2022-12-18T07:15:48;100710.94;;;-6.50;93.67
75895;BME280;64573;50.328;15.014;2022-12-18T07:18:13;100706.41;;;-6.42;93.69
75895;BME280;64573;50.328;15.014;2022-12-18T07:20:39;100711.50;;;-6.38;93.41
75895;BME280;64573;50.328;15.014;2022-12-18T07:23:04;100710.81;;;-6.46;92.58
75895;BME280;64573;50.328;15.014;2022-12-18T07:25:34;100718.53;;;-6.40;92.24
75895;BME280;64573;50.328;15.014;2022-12-18T07:27:59;100728.94;;;-6.36;92.77
75895;BME280;64573;50.328;15.014;2022-12-18T07:30:25;100728.69;;;-6.26;92.85
75895;BME280;64573;50.328;15.014;2022-12-18T07:32:50;100726.03;;;-6.24;92.29
75895;BME280;64573;50.328;15.014;2022-12-18T07:35:15;100722.59;;;-6.26;92.06
75895;BME280;64573;50.328;15.014;2022-12-18T07:37:41;100731.25;;;-6.23;92.77
75895;BME280;64573;50.328;15.014;2022-12-18T07:40:07;100727.69;;;-6.20;92.60
75895;BME280;64573;50.328;15.014;2022-12-18T07:42:33;100738.38;;;-6.32;91.84
75895;BME280;64573;50.328;15.014;2022-12-18T07:44:59;100743.28;;;-6.17;92.73
75895;BME280;64573;50.328;15.014;2022-12-18T07:47:31;100749.97;;;-6.04;92.28
75895;BME280;64573;50.328;15.014;2022-12-18T07:49:59;100765.59;;;-6.02;92.22
75895;BME280;64573;50.328;15.014;2022-12-18T07:52:24;100762.81;;;-5.93;92.05
75895;BME280;64573;50.328;15.014;2022-12-18T07:54:49;100770.59;;;-5.92;92.32
75895;BME280;64573;50.328;15.014;2022-12-18T07:57:16;100771.72;;;-6.03;91.54
75895;BME280;64573;50.328;15.014;2022-12-18T07:59:42;100769.03;;;-5.99;91.61
75895;BME280;64573;50.328;15.014;2022-12-18T08:02:07;100769.72;;;-5.91;92.45
75895;BME280;64573;50.328;15.014;2022-12-18T08:04:33;100764.41;;;-5.89;91.33
75895;BME280;64573;50.328;15.014;2022-12-18T08:07:01;100764.34;;;-5.86;91.09
75895;BME280;64573;50.328;15.014;2022-12-18T08:09:26;100772.31;;;-5.91;91.83
75895;BME280;64573;50.328;15.014;2022-12-18T08:11:52;100771.59;;;-5.97;91.73
75895;BME280;64573;50.328;15.014;2022-12-18T08:14:17;100771.56;;;-5.96;92.09
75895;BME280;64573;50.328;15.014;2022-12-18T08:16:42;100765.59;;;-6.02;91.81
75895;BME280;64573;50.328;15.014;2022-12-18T08:19:08;100780.53;;;-6.07;91.92
75895;BME280;64573;50.328;15.014;2022-12-18T08:21:36;100777.34;;;-6.22;92.24
75895;BME280;64573;50.328;15.014;2022-12-18T08:24:02;100769.19;;;-6.06;92.68
75895;BME280;64573;50.328;15.014;2022-12-18T08:26:29;100770.13;;;-6.11;92.35
75895;BME280;64573;50.328;15.014;2022-12-18T08:28:56;100770.88;;;-6.04;92.38
75895;BME280;64573;50.328;15.014;2022-12-18T08:31:23;100776.56;;;-5.88;91.68
75895;BME280;64573;50.328;15.014;2022-12-18T08:33:49;100773.47;;;-6.04;91.13
75895;BME280;64573;50.328;15.014;2022-12-18T08:36:16;100771.22;;;-5.82;90.97
75895;BME280;64573;50.328;15.014;2022-12-18T08:38:42;100772.56;;;-5.66;91.04
75895;BME280;64573;50.328;15.014;2022-12-18T08:41:10;100780.19;;;-5.55;90.98
75895;BME280;64573;50.328;15.014;2022-12-18T08:43:36;100780.25;;;-5.58;90.63
75895;BME280;64573;50.328;15.014;2022-12-18T08:46:20;100776.34;;;-5.40;89.59
75895;BME280;64573;50.328;15.014;2022-12-18T08:48:46;100771.34;;;-5.49;89.37
75895;BME280;64573;50.328;15.014;2022-12-18T08:51:12;100767.75;;;-5.45;89.95
75895;BME280;64573;50.328;15.014;2022-12-18T08:53:40;100773.19;;;-5.55;89.64
75895;BME280;64573;50.328;15.014;2022-12-18T08:56:05;100771.31;;;-5.48;89.49
75895;BME280;64573;50.328;15.014;2022-12-18T08:58:31;100775.50;;;-5.41;89.14
75895;BME280;64573;50.328;15.014;2022-12-18T09:01:04;100781.34;;;-5.31;88.31
75895;BME280;64573;50.328;15.014;2022-12-18T09:03:30;100781.28;;;-5.28;88.15
75895;BME280;64573;50.328;15.014;2022-12-18T09:05:56;100777.88;;;-5.32;87.39
75895;BME280;64573;50.328;15.014;2022-12-18T09:08:21;100769.94;;;-5.27;87.13
75895;BME280;64573;50.328;15.014;2022-12-18T09:10:48;100767.22;;;-5.24;87.16
75895;BME280;64573;50.328;15.014;2022-12-18T09:13:14;100762.81;;;-5.22;86.88
75895;BME280;64573;50.328;15.014;2022-12-18T09:15:42;100767.19;;;-5.22;87.51
75895;BME280;64573;50.328;15.014;2022-12-18T09:18:08;100770.50;;;-5.51;87.43
75895;BME280;64573;50.328;15.014;2022-12-18T09:20:34;100769.28;;;-5.37;87.08
75895;BME280;64573;50.328;15.014;2022-12-18T09:23:00;100762.78;;;-5.56;86.62
75895;BME280;64573;50.328;15.014;2022-12-18T09:25:25;100775.97;;;-5.61;87.27
75895;BME280;64573;50.328;15.014;2022-12-18T09:27:52;100774.16;;;-5.57;87.42
75895;BME280;64573;50.328;15.014;2022-12-18T09:30:18;100769.59;;;-5.50;88.21
75895;BME280;64573;50.328;15.014;2022-12-18T09:32:43;100774.97;;;-5.55;87.27
75895;BME280;64573;50.328;15.014;2022-12-18T09:35:08;100776.56;;;-5.49;86.91
75895;BME280;64573;50.328;15.014;2022-12-18T09:37:34;100787.38;;;-5.28;85.98
75895;BME280;64573;50.328;15.014;2022-12-18T09:39:59;100784.28;;;-5.45;86.74
75895;BME280;64573;50.328;15.014;2022-12-18T09:42:24;100784.91;;;-5.71;86.97
75895;BME280;64573;50.328;15.014;2022-12-18T09:44:52;100793.66;;;-5.73;87.47
75895;BME280;64573;50.328;15.014;2022-12-18T09:47:25;100789.59;;;-5.48;87.21
75895;BME280;64573;50.328;15.014;2022-12-18T09:49:58;100792.13;;;-5.45;86.45
75895;BME280;64573;50.328;15.014;2022-12-18T09:57:52;100790.31;;;-5.80;87.93
75895;BME280;64573;50.328;15.014;2022-12-18T10:00:22;100790.88;;;-6.03;nan
75895;BME280;64573;50.328;15.014;2022-12-18T10:02:50;100793.09;;;-5.86;87.81
75895;BME280;64573;50.328;15.014;2022-12-18T10:05:25;100788.44;;;-5.73;88.45
75895;BME280;64573;50.328;15.014;2022-12-18T10:08:05;100801.69;;;-5.42;87.08
75895;BME280;64573;50.328;15.014;2022-12-18T10:10:43;100811.97;;;-5.36;86.83
75895;BME280;64573;50.328;15.014;2022-12-18T10:13:23;100810.53;;;-5.12;86.20
75895;BME280;64573;50.328;15.014;2022-12-18T10:21:18;100807.31;;;-5.61;87.20
75895;BME280;64573;50.328;15.014;2022-12-18T10:26:14;100821.38;;;-5.28;86.25
75895;BME280;64573;50.328;15.014;2022-12-18T10:28:41;100821.09;;;-5.17;86.33
75895;BME280;64573;50.328;15.014;2022-12-18T10:31:12;100817.56;;;-4.80;85.44
75895;BME280;64573;50.328;15.014;2022-12-18T10:33:39;100819.53;;;-4.88;83.86
75895;BME280;64573;50.328;15.014;2022-12-18T10:36:06;100813.16;;;-5.87;87.43
75895;BME280;64573;50.328;15.014;2022-12-18T10:38:32;100807.53;;;-5.70;87.27
75895;BME280;64573;50.328;15.014;2022-12-18T10:41:23;100799.78;;;-5.74;86.93
75895;BME280;64573;50.328;15.014;2022-12-18T10:44:20;100790.88;;;-5.64;86.67
75895;BME280;64573;50.328;15.014;2022-12-18T10:46:49;100786.81;;;-5.40;86.47
75895;BME280;64573;50.328;15.014;2022-12-18T10:49:21;100788.22;;;-4.91;85.91
75895;BME280;64573;50.328;15.014;2022-12-18T10:51:47;100783.97;;;-5.31;85.42
75895;BME280;64573;50.328;15.014;2022-12-18T10:54:22;100779.19;;;-5.51;86.49
75895;BME280;64573;50.328;15.014;2022-12-18T10:56:48;100782.00;;;-5.23;86.04
75895;BME280;64573;50.328;15.014;2022-12-18T10:59:16;100784.47;;;-5.17;84.69
75895;BME280;64573;50.328;15.014;2022-12-18T11:01:46;100780.44;;;-5.29;85.98
75895;BME280;64573;50.328;15.014;2022-12-18T11:04:20;100781.34;;;-6.05;88.14
75895;BME280;64573;50.328;15.014;2022-12-18T11:09:30;100765.56;;;-5.99;88.18
75895;BME280;64573;50.328;15.014;2022-12-18T11:11:59;100771.22;;;-5.82;87.83
75895;BME280;64573;50.328;15.014;2022-12-18T11:17:25;100758.53;;;-5.97;88.35
75895;BME280;64573;50.328;15.014;2022-12-18T11:19:58;100757.16;;;-5.76;87.54
75895;BME280;64573;50.328;15.014;2022-12-18T11:22:29;100750.50;;;-5.90;88.01
75895;BME280;64573;50.328;15.014;2022-12-18T11:25:02;100748.16;;;-6.02;88.02
75895;BME280;64573;50.328;15.014;2022-12-18T11:27:30;100743.25;;;-5.77;88.13
75895;BME280;64573;50.328;15.014;2022-12-18T11:30:34;100738.00;;;-5.77;88.50
75895;BME280;64573;50.328;15.014;2022-12-18T11:33:21;100733.47;;;-5.69;87.38
75895;BME280;64573;50.328;15.014;2022-12-18T11:36:00;100730.66;;;-5.61;87.19
75895;BME280;64573;50.328;15.014;2022-12-18T11:38:35;100737.22;;;-6.18;88.66
75895;BME280;64573;50.328;15.014;2022-12-18T11:41:11;100732.44;;;-5.99;87.86
75895;BME280;64573;50.328;15.014;2022-12-18T11:43:47;100731.72;;;-6.05;87.95
75895;BME280;64573;50.328;15.014;2022-12-18T11:46:17;100732.09;;;-6.22;89.36
75895;BME280;64573;50.328;15.014;2022-12-18T11:52:19;100732.22;;;-6.28;88.89
75895;BME280;64573;50.328;15.014;2022-12-18T11:54:51;100744.91;;;-6.53;89.75
75895;BME280;64573;50.328;15.014;2022-12-18T12:00:13;100749.03;;;-6.42;90.21
75895;BME280;64573;50.328;15.014;2022-12-18T12:08:15;100738.13;;;-6.62;91.44
75895;BME280;64573;50.328;15.014;2022-12-18T12:16:25;100748.88;;;-5.94;88.95
75895;BME280;64573;50.328;15.014;2022-12-18T12:21:44;100745.56;;;-5.65;87.74
75895;BME280;64573;50.328;15.014;2022-12-18T12:24:47;100749.88;;;-5.62;87.08
75895;BME280;64573;50.328;15.014;2022-12-18T12:35:25;100739.53;;;-6.04;89.47
75895;BME280;64573;50.328;15.014;2022-12-18T12:40:28;100744.22;;;-5.83;89.25
75895;BME280;64573;50.328;15.014;2022-12-18T12:43:15;100745.59;;;-6.03;89.75
75895;BME280;64573;50.328;15.014;2022-12-18T12:45:57;100748.94;;;-6.37;91.09
75895;BME280;64573;50.328;15.014;2022-12-18T12:48:47;100749.50;;;-6.21;90.35
75895;BME280;64573;50.328;15.014;2022-12-18T12:51:26;100754.47;;;-6.11;90.07
75895;BME280;64573;50.328;15.014;2022-12-18T12:53:54;100754.13;;;-5.95;90.40
75895;BME280;64573;50.328;15.014;2022-12-18T12:56:21;100759.16;;;-5.88;89.40
75895;BME280;64573;50.328;15.014;2022-12-18T13:07:33;100759.16;;;-6.26;91.54
75895;BME280;64573;50.328;15.014;2022-12-18T13:10:23;100754.53;;;-6.14;91.65
75895;BME280;64573;50.328;15.014;2022-12-18T13:12:54;100762.94;;;-5.99;90.21
75895;BME280;64573;50.328;15.014;2022-12-18T13:25:51;100786.94;;;-6.22;90.96
75895;BME280;64573;50.328;15.014;2022-12-18T13:31:06;100777.97;;;-6.11;91.51
75895;BME280;64573;50.328;15.014;2022-12-18T13:36:17;100783.16;;;-6.09;90.87
75895;BME280;64573;50.328;15.014;2022-12-18T13:41:35;100794.47;;;-6.50;92.22
75895;BME280;64573;50.328;15.014;2022-12-18T13:44:12;100788.28;;;-6.46;91.56
75895;BME280;64573;50.328;15.014;2022-12-18T13:46:48;100787.53;;;-6.51;91.31
75895;BME280;64573;50.328;15.014;2022-12-18T13:49:22;100781.53;;;-6.56;92.09
75895;BME280;64573;50.328;15.014;2022-12-18T13:51:50;100782.25;;;-6.50;92.11
75895;BME280;64573;50.328;15.014;2022-12-18T13:54:37;100774.59;;;-6.57;92.01
75895;BME280;64573;50.328;15.014;2022-12-18T13:57:05;100782.31;;;-6.51;92.69
75895;BME280;64573;50.328;15.014;2022-12-18T13:59:51;100794.75;;;-6.65;92.51
75895;BME280;64573;50.328;15.014;2022-12-18T14:02:20;100786.06;;;-6.66;92.10
75895;BME280;64573;50.328;15.014;2022-12-18T14:04:48;100788.78;;;-6.74;92.46
75895;BME280;64573;50.328;15.014;2022-12-18T14:09:49;100785.22;;;-6.68;93.62
75895;BME280;64573;50.328;15.014;2022-12-18T14:12:19;100784.69;;;-6.85;93.89
75895;BME280;64573;50.328;15.014;2022-12-18T14:15:09;100789.72;;;-6.76;92.68
75895;BME280;64573;50.328;15.014;2022-12-18T14:17:42;100793.00;;;-6.67;92.97
75895;BME280;64573;50.328;15.014;2022-12-18T14:20:14;100800.84;;;-6.67;93.22
75895;BME280;64573;50.328;15.014;2022-12-18T14:22:45;100789.59;;;-6.70;92.59
75895;BME280;64573;50.328;15.014;2022-12-18T14:27:38;100789.09;;;-6.90;93.52
75895;BME280;64573;50.328;15.014;2022-12-18T14:30:39;100795.25;;;-6.93;93.35
75895;BME280;64573;50.328;15.014;2022-12-18T14:33:16;100797.69;;;-6.84;92.49